Time;durP1;ratioP1;P1;durP2;ratioP2;P2;SDS_P1;SDS_P2;PMS_P1;PMS_P2;Temp;Humidity;BMP_temperature;BMP_pressure;BME280_temperature;BME280_humidity;BME280_pressure;Samples;Min_cycle;Max_cycle;Signal;HPM_P1;HPM_P2
2022/07/26 00:01:45;;;;;;;11.98;2.55;;;;;;;;;;5069418;28;20040;-73
2022/07/26 00:04:11;;;;;;;13.80;2.65;;;;;;;;;;5070188;28;20041;-73
2022/07/26 00:06:37;;;;;;;12.68;2.40;;;;;;;;;;5073295;28;20478;-72
2022/07/26 00:09:03;;;;;;;17.40;3.38;;;;;;;;;;5073749;28;20041;-73
2022/07/26 00:11:32;;;;;;;14.88;2.83;;;;;;;;;;5073480;28;20050;-73
2022/07/26 00:13:59;;;;;;;16.52;3.10;;;;;;;;;;5069648;28;20567;-73
2022/07/26 00:16:25;;;;;;;15.02;3.22;;;;;;;;;;5060513;28;20045;-73
2022/07/26 00:18:51;;;;;;;17.23;3.25;;;;;;;;;;5071211;28;20052;-72
2022/07/26 00:21:17;;;;;;;14.30;3.28;;;;;;;;;;5069922;28;20044;-73
2022/07/26 00:23:43;;;;;;;14.68;3.10;;;;;;;;;;5069290;28;20060;-73
2022/07/26 00:26:09;;;;;;;15.80;2.97;;;;;;;;;;5072045;28;20037;-73
2022/07/26 00:28:35;;;;;;;16.70;3.38;;;;;;;;;;5072995;28;20076;-72
2022/07/26 00:31:01;;;;;;;19.77;3.50;;;;;;;;;;5070511;28;20045;-73
2022/07/26 00:33:27;;;;;;;20.15;3.10;;;;;;;;;;5071260;28;20040;-73
2022/07/26 00:35:53;;;;;;;16.45;3.03;;;;;;;;;;5073759;28;20091;-72
2022/07/26 00:38:19;;;;;;;13.63;3.00;;;;;;;;;;5072780;28;20080;-72
2022/07/26 00:40:45;;;;;;;17.67;3.47;;;;;;;;;;5073312;28;20048;-72
2022/07/26 00:43:11;;;;;;;14.38;2.85;;;;;;;;;;5068200;28;20502;-73
2022/07/26 00:45:37;;;;;;;15.85;2.92;;;;;;;;;;5071650;28;20078;-72
2022/07/26 00:48:03;;;;;;;21.67;3.70;;;;;;;;;;5067275;28;20036;-72
2022/07/26 00:50:29;;;;;;;18.67;3.45;;;;;;;;;;5071803;28;20127;-73
2022/07/26 00:52:55;;;;;;;18.30;3.42;;;;;;;;;;5070406;28;20049;-74
2022/07/26 00:55:21;;;;;;;18.83;3.67;;;;;;;;;;5071583;28;20052;-72
2022/07/26 00:57:47;;;;;;;15.60;3.28;;;;;;;;;;5069648;28;20059;-72
2022/07/26 01:00:16;;;;;;;18.20;3.30;;;;;;;;;;5059424;28;20122;-72
2022/07/26 01:02:42;;;;;;;15.48;2.92;;;;;;;;;;5067905;28;20052;-73
2022/07/26 01:05:08;;;;;;;15.93;3.05;;;;;;;;;;5066929;28;20095;-73
2022/07/26 01:07:35;;;;;;;16.35;3.22;;;;;;;;;;5070187;28;20051;-73
2022/07/26 01:10:02;;;;;;;18.45;3.88;;;;;;;;;;5072672;28;20033;-73
2022/07/26 01:12:28;;;;;;;18.45;3.42;;;;;;;;;;5071975;28;20567;-72
2022/07/26 01:14:54;;;;;;;13.93;3.40;;;;;;;;;;5071464;28;20417;-73
2022/07/26 01:17:20;;;;;;;16.85;3.40;;;;;;;;;;5070447;28;20048;-72
2022/07/26 01:19:46;;;;;;;17.58;3.65;;;;;;;;;;5072308;28;20056;-73
2022/07/26 01:22:12;;;;;;;17.77;3.60;;;;;;;;;;5067217;28;20460;-72
2022/07/26 01:24:38;;;;;;;18.67;3.42;;;;;;;;;;5072699;28;20127;-72
2022/07/26 01:27:04;;;;;;;15.13;3.47;;;;;;;;;;5071302;28;20116;-73
2022/07/26 01:29:30;;;;;;;15.40;3.35;;;;;;;;;;5070676;28;20051;-72
2022/07/26 01:31:56;;;;;;;17.90;3.83;;;;;;;;;;5067878;28;20130;-73
2022/07/26 01:34:22;;;;;;;19.13;3.72;;;;;;;;;;5070831;28;20040;-72
2022/07/26 01:36:49;;;;;;;15.32;3.22;;;;;;;;;;5062733;28;20036;-74
2022/07/26 01:39:15;;;;;;;20.13;3.80;;;;;;;;;;5072580;28;20048;-73
2022/07/26 01:41:41;;;;;;;16.10;3.80;;;;;;;;;;5071020;28;20048;-74
2022/07/26 01:44:07;;;;;;;17.15;3.85;;;;;;;;;;5069610;28;20040;-73
2022/07/26 01:46:34;;;;;;;16.40;3.33;;;;;;;;;;5068183;28;20051;-73
2022/07/26 01:49:00;;;;;;;16.85;3.92;;;;;;;;;;5068906;28;20037;-73
2022/07/26 01:51:26;;;;;;;17.90;3.72;;;;;;;;;;5068079;28;20117;-73
2022/07/26 01:53:52;;;;;;;15.00;3.50;;;;;;;;;;5068969;28;20036;-72
2022/07/26 01:56:18;;;;;;;18.75;3.72;;;;;;;;;;5070199;28;20043;-72
2022/07/26 01:58:44;;;;;;;17.42;3.78;;;;;;;;;;5069118;28;20475;-72
2022/07/26 02:01:11;;;;;;;19.17;3.30;;;;;;;;;;5067405;28;20056;-72
2022/07/26 02:03:37;;;;;;;16.63;3.35;;;;;;;;;;5070694;28;20121;-73
2022/07/26 02:06:04;;;;;;;15.70;3.55;;;;;;;;;;5069586;28;20054;-73
2022/07/26 02:08:30;;;;;;;17.80;3.58;;;;;;;;;;5072331;28;20040;-72
2022/07/26 02:10:59;;;;;;;17.88;3.38;;;;;;;;;;5071250;28;20441;-72
2022/07/26 02:13:28;;;;;;;19.50;3.63;;;;;;;;;;5071692;28;20044;-73
2022/07/26 02:15:54;;;;;;;14.65;3.70;;;;;;;;;;5067605;28;20076;-72
2022/07/26 02:18:20;;;;;;;19.35;3.80;;;;;;;;;;5071065;28;20102;-73
2022/07/26 02:20:46;;;;;;;16.98;3.10;;;;;;;;;;5069735;28;20083;-73
2022/07/26 02:23:12;;;;;;;16.33;3.60;;;;;;;;;;5070580;28;20101;-72
2022/07/26 02:25:38;;;;;;;16.48;3.72;;;;;;;;;;5071485;28;20048;-72
2022/07/26 02:28:04;;;;;;;12.98;3.45;;;;;;;;;;5071009;28;20041;-73
2022/07/26 02:30:30;;;;;;;16.80;3.78;;;;;;;;;;5070609;28;20076;-72
2022/07/26 02:32:56;;;;;;;15.18;3.35;;;;;;;;;;5065627;28;20072;-72
2022/07/26 02:35:22;;;;;;;19.27;3.60;;;;;;;;;;5069209;28;20546;-72
2022/07/26 02:37:48;;;;;;;14.40;3.20;;;;;;;;;;5071058;28;20068;-72
2022/07/26 02:40:14;;;;;;;20.02;3.67;;;;;;;;;;5071714;28;20075;-73
2022/07/26 02:42:40;;;;;;;16.13;3.53;;;;;;;;;;5070707;28;20410;-72
2022/07/26 02:45:07;;;;;;;18.13;3.75;;;;;;;;;;5068374;28;20044;-72
2022/07/26 02:47:33;;;;;;;16.35;3.80;;;;;;;;;;5069015;28;20043;-73
2022/07/26 02:49:59;;;;;;;13.55;3.47;;;;;;;;;;5073703;28;20041;-72
2022/07/26 02:52:25;;;;;;;22.30;4.35;;;;;;;;;;5069193;28;20048;-73
2022/07/26 02:54:51;;;;;;;11.85;3.00;;;;;;;;;;5072245;28;20044;-73
2022/07/26 02:57:20;;;;;;;15.32;3.55;;;;;;;;;;5075675;28;20478;-72
2022/07/26 02:59:46;;;;;;;15.60;3.35;;;;;;;;;;5056618;28;20041;-72
2022/07/26 03:02:12;;;;;;;14.65;3.63;;;;;;;;;;5072556;28;20040;-73
2022/07/26 03:04:38;;;;;;;16.45;3.72;;;;;;;;;;5071633;28;20513;-73
2022/07/26 03:07:04;;;;;;;15.25;3.30;;;;;;;;;;5074253;28;20047;-73
2022/07/26 03:09:30;;;;;;;16.42;3.50;;;;;;;;;;5073877;28;20040;-72
2022/07/26 03:11:56;;;;;;;16.13;3.92;;;;;;;;;;5073946;28;20048;-72
2022/07/26 03:14:22;;;;;;;17.95;3.60;;;;;;;;;;5075289;28;20500;-72
2022/07/26 03:16:48;;;;;;;15.02;3.80;;;;;;;;;;5073090;28;20054;-73
2022/07/26 03:19:14;;;;;;;18.60;3.88;;;;;;;;;;5075464;28;20127;-73
2022/07/26 03:21:40;;;;;;;15.68;3.92;;;;;;;;;;5065918;28;20486;-72
2022/07/26 03:24:06;;;;;;;16.70;3.90;;;;;;;;;;5072425;28;20044;-73
2022/07/26 03:26:32;;;;;;;13.15;3.30;;;;;;;;;;5074568;28;20072;-73
2022/07/26 03:28:58;;;;;;;14.90;3.38;;;;;;;;;;5074641;28;20079;-73
2022/07/26 03:31:24;;;;;;;15.13;3.80;;;;;;;;;;5070986;28;20410;-73
2022/07/26 03:33:50;;;;;;;16.05;3.70;;;;;;;;;;5071775;28;20043;-73
2022/07/26 03:36:16;;;;;;;16.85;3.67;;;;;;;;;;5074236;28;20098;-73
2022/07/26 03:38:42;;;;;;;11.85;3.08;;;;;;;;;;5072096;28;20051;-72
2022/07/26 03:41:08;;;;;;;13.02;3.33;;;;;;;;;;5072689;28;20051;-73
2022/07/26 03:43:34;;;;;;;13.38;3.38;;;;;;;;;;5071932;28;20033;-73
2022/07/26 03:46:01;;;;;;;12.93;3.20;;;;;;;;;;5071569;28;20036;-73
2022/07/26 03:48:27;;;;;;;12.23;3.65;;;;;;;;;;5067768;28;20039;-72
2022/07/26 03:50:53;;;;;;;14.45;3.70;;;;;;;;;;5074098;28;20475;-72
2022/07/26 03:53:19;;;;;;;12.82;3.38;;;;;;;;;;5069149;28;20105;-71
2022/07/26 03:58:29;;;;;;;10.40;2.15;;;;;;;;;;5069577;28;20053;-72
2022/07/26 04:00:55;;;;;;;7.63;2.00;;;;;;;;;;5071478;28;20106;-72
2022/07/26 04:03:21;;;;;;;7.65;2.03;;;;;;;;;;5067940;28;20406;-71
2022/07/26 04:05:47;;;;;;;8.07;2.00;;;;;;;;;;5066349;28;20042;-70
2022/07/26 04:08:13;;;;;;;6.15;1.73;;;;;;;;;;5070833;28;20520;-73
2022/07/26 04:10:44;;;;;;;8.52;1.90;;;;;;;;;;5072269;28;20048;-72
2022/07/26 04:13:10;;;;;;;7.10;2.05;;;;;;;;;;5070903;28;20120;-72
2022/07/26 04:15:36;;;;;;;7.53;1.95;;;;;;;;;;5072835;28;20139;-72
2022/07/26 04:18:02;;;;;;;6.32;2.60;;;;;;;;;;5074429;28;20123;-73
2022/07/26 04:20:28;;;;;;;9.43;3.17;;;;;;;;;;5057229;28;20486;-73
2022/07/26 04:22:54;;;;;;;10.20;1.98;;;;;;;;;;5069084;28;20509;-72
2022/07/26 04:25:20;;;;;;;7.20;2.10;;;;;;;;;;5073606;28;20045;-73
2022/07/26 04:27:46;;;;;;;10.27;2.83;;;;;;;;;;5068561;28;20052;-73
2022/07/26 04:30:12;;;;;;;10.10;2.15;;;;;;;;;;5071979;28;20049;-73
2022/07/26 04:32:38;;;;;;;7.85;1.90;;;;;;;;;;5066607;28;20055;-72
2022/07/26 04:35:04;;;;;;;10.75;2.45;;;;;;;;;;5071872;28;20053;-72
2022/07/26 04:37:33;;;;;;;8.45;1.98;;;;;;;;;;5072934;28;20097;-72
2022/07/26 04:40:00;;;;;;;12.65;2.45;;;;;;;;;;5070969;28;20044;-72
2022/07/26 04:42:26;;;;;;;6.75;1.90;;;;;;;;;;5069785;28;20070;-73
2022/07/26 04:44:52;;;;;;;8.57;2.28;;;;;;;;;;5069513;28;20041;-72
2022/07/26 04:47:18;;;;;;;6.38;1.80;;;;;;;;;;5070225;28;20045;-71
2022/07/26 04:49:44;;;;;;;8.48;2.28;;;;;;;;;;5071187;28;20406;-72
2022/07/26 04:52:10;;;;;;;5.13;1.67;;;;;;;;;;5064074;28;20080;-73
2022/07/26 04:54:36;;;;;;;11.30;1.88;;;;;;;;;;5071011;28;20395;-73
2022/07/26 04:57:02;;;;;;;9.93;1.85;;;;;;;;;;5068232;28;20040;-73
2022/07/26 04:59:28;;;;;;;8.57;1.92;;;;;;;;;;5066738;28;20060;-73
2022/07/26 05:01:54;;;;;;;7.25;1.67;;;;;;;;;;5071059;28;20040;-72
2022/07/26 05:04:20;;;;;;;7.90;1.48;;;;;;;;;;5064272;28;20524;-73
2022/07/26 05:06:46;;;;;;;8.95;1.60;;;;;;;;;;5058278;28;20045;-72
2022/07/26 05:09:12;;;;;;;7.20;1.52;;;;;;;;;;5058076;28;20053;-73
2022/07/26 05:11:38;;;;;;;9.68;1.88;;;;;;;;;;5073070;28;20397;-73
2022/07/26 05:14:04;;;;;;;8.80;1.60;;;;;;;;;;5068027;28;20053;-72
2022/07/26 05:16:30;;;;;;;6.95;1.73;;;;;;;;;;5071650;28;20052;-73
2022/07/26 05:18:56;;;;;;;7.20;1.67;;;;;;;;;;5069325;28;20134;-72
2022/07/26 05:21:22;;;;;;;9.18;1.48;;;;;;;;;;5069736;28;20072;-73
2022/07/26 05:23:48;;;;;;;9.15;1.50;;;;;;;;;;5069716;28;20114;-72
2022/07/26 05:26:14;;;;;;;7.18;1.50;;;;;;;;;;5070874;28;20482;-73
2022/07/26 05:28:41;;;;;;;5.22;1.38;;;;;;;;;;5069050;28;20083;-72
2022/07/26 05:31:07;;;;;;;6.75;1.38;;;;;;;;;;5068608;28;20052;-73
2022/07/26 05:33:33;;;;;;;9.50;1.70;;;;;;;;;;5069084;28;20075;-72
2022/07/26 05:35:59;;;;;;;7.30;1.95;;;;;;;;;;5056612;28;20071;-72
2022/07/26 05:38:26;;;;;;;10.65;1.90;;;;;;;;;;5072141;28;20403;-72
2022/07/26 05:40:52;;;;;;;7.95;1.70;;;;;;;;;;5072131;28;20085;-72
2022/07/26 05:43:18;;;;;;;7.88;1.45;;;;;;;;;;5070933;28;20040;-72
2022/07/26 05:45:44;;;;;;;9.38;1.52;;;;;;;;;;5065538;28;20403;-72
2022/07/26 05:48:10;;;;;;;8.32;1.30;;;;;;;;;;5058758;28;20396;-72
2022/07/26 05:50:36;;;;;;;7.78;1.30;;;;;;;;;;5072476;28;20044;-72
2022/07/26 05:53:02;;;;;;;7.68;1.30;;;;;;;;;;5068201;28;20455;-72
2022/07/26 05:55:28;;;;;;;9.75;1.38;;;;;;;;;;5049512;28;20048;-72
2022/07/26 05:57:54;;;;;;;11.00;1.40;;;;;;;;;;5066008;28;20082;-73
2022/07/26 06:00:20;;;;;;;8.27;1.25;;;;;;;;;;5062762;28;20098;-71
2022/07/26 06:02:46;;;;;;;7.93;1.50;;;;;;;;;;5063970;28;20045;-72
2022/07/26 06:05:14;;;;;;;7.95;1.10;;;;;;;;;;5063294;28;20199;-72
2022/07/26 06:07:40;;;;;;;13.63;1.60;;;;;;;;;;5070245;28;20410;-73
2022/07/26 06:10:07;;;;;;;10.13;1.65;;;;;;;;;;5069865;28;20033;-73
2022/07/26 06:12:32;;;;;;;6.10;1.00;;;;;;;;;;5065326;28;20063;-74
2022/07/26 06:14:58;;;;;;;7.38;1.27;;;;;;;;;;5068957;28;20093;-73
2022/07/26 06:17:28;;;;;;;6.00;0.98;;;;;;;;;;5051043;28;20115;-73
2022/07/26 06:19:54;;;;;;;8.13;1.48;;;;;;;;;;5071867;28;20048;-73
2022/07/26 06:22:20;;;;;;;5.13;0.80;;;;;;;;;;5074544;28;20056;-73
2022/07/26 06:24:46;;;;;;;6.43;1.00;;;;;;;;;;5072667;28;20052;-74
2022/07/26 06:27:12;;;;;;;6.00;0.75;;;;;;;;;;5070515;28;20044;-73
2022/07/26 06:29:39;;;;;;;6.30;1.10;;;;;;;;;;5070997;28;20127;-72
2022/07/26 06:32:05;;;;;;;5.35;1.13;;;;;;;;;;5071911;28;20101;-73
2022/07/26 06:34:31;;;;;;;6.45;0.82;;;;;;;;;;5071392;28;20055;-73
2022/07/26 06:36:57;;;;;;;4.60;0.90;;;;;;;;;;5071051;28;20044;-74
2022/07/26 06:39:23;;;;;;;5.97;0.90;;;;;;;;;;5070908;28;20069;-72
2022/07/26 06:41:49;;;;;;;5.82;0.90;;;;;;;;;;5072201;28;20526;-73
2022/07/26 06:44:15;;;;;;;5.28;0.80;;;;;;;;;;5072474;28;20473;-73
2022/07/26 06:46:41;;;;;;;9.80;1.40;;;;;;;;;;5054010;28;20128;-72
2022/07/26 06:49:07;;;;;;;6.85;0.93;;;;;;;;;;5072598;28;20470;-73
2022/07/26 06:51:33;;;;;;;7.13;0.90;;;;;;;;;;5072115;28;20113;-73
2022/07/26 06:54:00;;;;;;;5.43;0.82;;;;;;;;;;5070433;28;20064;-73
2022/07/26 06:56:26;;;;;;;5.07;0.80;;;;;;;;;;5066828;28;20120;-72
2022/07/26 06:58:54;;;;;;;3.75;0.80;;;;;;;;;;5067906;28;20052;-72
2022/07/26 07:01:20;;;;;;;5.18;0.80;;;;;;;;;;5071267;28;20059;-73
2022/07/26 07:03:46;;;;;;;9.65;1.23;;;;;;;;;;5067377;28;20105;-73
2022/07/26 07:06:12;;;;;;;9.98;1.83;;;;;;;;;;5070651;28;20053;-74
2022/07/26 07:08:38;;;;;;;7.55;1.00;;;;;;;;;;5070152;28;20047;-73
2022/07/26 07:11:05;;;;;;;6.32;0.90;;;;;;;;;;5070249;28;20037;-73
2022/07/26 07:13:31;;;;;;;6.68;1.00;;;;;;;;;;5061215;28;20047;-74
2022/07/26 07:15:57;;;;;;;7.05;1.00;;;;;;;;;;5071383;28;20040;-73
2022/07/26 07:18:23;;;;;;;5.60;0.70;;;;;;;;;;5068180;28;20040;-73
2022/07/26 07:20:49;;;;;;;5.63;0.93;;;;;;;;;;5071330;28;20076;-73
2022/07/26 07:23:15;;;;;;;7.28;1.13;;;;;;;;;;5066386;28;20049;-73
2022/07/26 07:25:41;;;;;;;7.20;0.80;;;;;;;;;;5072110;28;20083;-73
2022/07/26 07:28:07;;;;;;;5.18;0.88;;;;;;;;;;5067982;28;21081;-73
2022/07/26 07:30:33;;;;;;;6.38;0.85;;;;;;;;;;5069154;28;20047;-73
2022/07/26 07:32:59;;;;;;;6.22;1.00;;;;;;;;;;5070887;28;20037;-73
2022/07/26 07:35:25;;;;;;;6.35;0.82;;;;;;;;;;5069552;28;20683;-73
2022/07/26 07:37:51;;;;;;;7.20;1.00;;;;;;;;;;5072850;28;20047;-73
2022/07/26 07:40:17;;;;;;;5.85;0.80;;;;;;;;;;5064176;28;20040;-72
2022/07/26 07:42:43;;;;;;;5.95;1.02;;;;;;;;;;5075710;28;20055;-74
2022/07/26 07:45:10;;;;;;;7.43;1.20;;;;;;;;;;5075349;28;20043;-72
2022/07/26 07:47:36;;;;;;;7.88;1.10;;;;;;;;;;5074736;28;20205;-73
2022/07/26 07:50:02;;;;;;;5.63;0.80;;;;;;;;;;5074544;28;20046;-72
2022/07/26 07:52:28;;;;;;;7.93;0.93;;;;;;;;;;5074179;28;20216;-74
2022/07/26 07:54:54;;;;;;;7.78;1.30;;;;;;;;;;5075329;28;20060;-74
2022/07/26 07:57:20;;;;;;;8.07;1.40;;;;;;;;;;5075424;28;20045;-74
2022/07/26 07:59:46;;;;;;;5.38;0.80;;;;;;;;;;5073253;28;20127;-72
2022/07/26 08:02:14;;;;;;;7.40;1.00;;;;;;;;;;5070207;28;20128;-74
2022/07/26 08:04:40;;;;;;;5.78;0.90;;;;;;;;;;5075158;28;20522;-74
2022/07/26 08:07:06;;;;;;;8.48;0.80;;;;;;;;;;5075418;28;20052;-74
2022/07/26 08:09:32;;;;;;;7.78;1.20;;;;;;;;;;5073895;28;20083;-73
2022/07/26 08:11:58;;;;;;;5.78;1.00;;;;;;;;;;5073754;28;20043;-73
2022/07/26 08:14:24;;;;;;;9.32;0.93;;;;;;;;;;5075254;28;20040;-73
2022/07/26 08:16:51;;;;;;;7.50;1.15;;;;;;;;;;5074986;28;20041;-73
2022/07/26 08:19:17;;;;;;;5.45;1.00;;;;;;;;;;5065674;28;20044;-72
2022/07/26 08:21:44;;;;;;;6.88;1.13;;;;;;;;;;5073295;28;20525;-74
2022/07/26 08:24:11;;;;;;;7.65;1.08;;;;;;;;;;5067515;28;20094;-74
2022/07/26 08:26:37;;;;;;;6.60;1.00;;;;;;;;;;5070326;28;20067;-74
2022/07/26 08:29:03;;;;;;;5.97;1.10;;;;;;;;;;5067099;28;20094;-73
2022/07/26 08:31:29;;;;;;;5.28;1.10;;;;;;;;;;5057167;28;20406;-73
2022/07/26 08:33:55;;;;;;;7.35;1.00;;;;;;;;;;5072063;28;20036;-72
2022/07/26 08:36:21;;;;;;;5.70;0.90;;;;;;;;;;5068566;28;20045;-72
2022/07/26 08:38:47;;;;;;;6.05;0.93;;;;;;;;;;5073871;28;20047;-73
2022/07/26 08:41:13;;;;;;;7.30;0.90;;;;;;;;;;5073189;28;20040;-73
2022/07/26 08:43:39;;;;;;;4.63;0.98;;;;;;;;;;5068403;28;20043;-73
2022/07/26 08:46:06;;;;;;;8.05;0.95;;;;;;;;;;5073328;28;20045;-73
2022/07/26 08:48:32;;;;;;;6.35;0.82;;;;;;;;;;5070543;28;20105;-73
2022/07/26 08:51:00;;;;;;;5.50;1.02;;;;;;;;;;5072819;28;20055;-72
2022/07/26 08:53:29;;;;;;;8.95;1.58;;;;;;;;;;5072719;28;20201;-73
2022/07/26 08:55:56;;;;;;;8.60;1.10;;;;;;;;;;5070912;28;20063;-72
2022/07/26 08:58:22;;;;;;;4.63;0.80;;;;;;;;;;5071610;28;20478;-71
2022/07/26 09:01:02;;;;;;;6.10;0.80;;;;;;;;;;5071180;28;20047;-73
2022/07/26 09:03:29;;;;;;;8.60;1.40;;;;;;;;;;5068970;28;20097;-73
2022/07/26 09:05:55;;;;;;;8.05;1.20;;;;;;;;;;5074169;28;20087;-73
2022/07/26 09:08:28;;;;;;;6.53;1.15;;;;;;;;;;5073928;28;20087;-73
2022/07/26 09:10:54;;;;;;;5.90;1.08;;;;;;;;;;5074012;28;20040;-73
2022/07/26 09:13:22;;;;;;;8.35;1.17;;;;;;;;;;5072109;28;20044;-72
2022/07/26 09:15:48;;;;;;;8.07;1.45;;;;;;;;;;5074055;28;20083;-73
2022/07/26 09:18:25;;;;;;;8.18;1.55;;;;;;;;;;5070942;28;20040;-72
2022/07/26 09:20:51;;;;;;;7.55;1.25;;;;;;;;;;5057829;28;20045;-73
2022/07/26 09:23:17;;;;;;;9.15;1.48;;;;;;;;;;5067927;28;20127;-73
2022/07/26 09:25:44;;;;;;;8.90;1.30;;;;;;;;;;5072532;28;20050;-73
2022/07/26 09:28:28;;;;;;;7.60;1.38;;;;;;;;;;5069951;28;20116;-72
2022/07/26 09:31:04;;;;;;;9.77;1.30;;;;;;;;;;5072663;28;20513;-73
2022/07/26 09:33:47;;;;;;;6.88;1.65;;;;;;;;;;5055537;28;20049;-73
2022/07/26 09:36:13;;;;;;;7.60;1.00;;;;;;;;;;5073103;28;20049;-72
2022/07/26 09:38:42;;;;;;;4.30;0.80;;;;;;;;;;5072182;28;20064;-72
2022/07/26 09:41:27;;;;;;;4.50;0.70;;;;;;;;;;5072158;28;20042;-73
2022/07/26 09:43:54;;;;;;;10.13;1.20;;;;;;;;;;5073266;28;20169;-73
2022/07/26 09:46:21;;;;;;;7.97;1.13;;;;;;;;;;5073282;28;20048;-74
2022/07/26 09:48:47;;;;;;;6.38;1.08;;;;;;;;;;5073128;28;20052;-73
2022/07/26 09:51:13;;;;;;;8.68;1.10;;;;;;;;;;5072871;28;20147;-73
2022/07/26 09:53:46;;;;;;;6.43;0.82;;;;;;;;;;5072312;28;20067;-73
2022/07/26 09:56:12;;;;;;;4.88;0.90;;;;;;;;;;5071742;28;20379;-73
2022/07/26 09:58:39;;;;;;;9.70;1.20;;;;;;;;;;5071496;28;20047;-73
2022/07/26 10:01:05;;;;;;;8.18;1.60;;;;;;;;;;5071981;28;20109;-73
2022/07/26 10:03:32;;;;;;;5.95;1.02;;;;;;;;;;5066120;28;20052;-72
2022/07/26 10:05:58;;;;;;;7.85;1.23;;;;;;;;;;5072350;28;20036;-72
2022/07/26 10:08:25;;;;;;;9.48;1.38;;;;;;;;;;5078598;28;20105;-73
2022/07/26 10:10:59;;;;;;;9.57;1.20;;;;;;;;;;5066099;28;20444;-73
2022/07/26 10:13:27;;;;;;;8.18;1.20;;;;;;;;;;5069533;28;20575;-73
2022/07/26 10:15:55;;;;;;;6.35;0.90;;;;;;;;;;5072926;28;20410;-73
2022/07/26 10:18:36;;;;;;;6.97;1.30;;;;;;;;;;5071220;28;20040;-72
2022/07/26 10:21:19;;;;;;;9.20;1.40;;;;;;;;;;5069439;28;20379;-71
2022/07/26 10:23:45;;;;;;;7.43;1.42;;;;;;;;;;5071870;28;20048;-73
2022/07/26 10:26:30;;;;;;;8.55;1.58;;;;;;;;;;5072163;28;20097;-72
2022/07/26 10:29:19;;;;;;;8.05;1.25;;;;;;;;;;5072537;28;20101;-72
2022/07/26 10:31:45;;;;;;;8.68;1.10;;;;;;;;;;5062741;28;20056;-73
2022/07/26 10:34:28;;;;;;;8.30;1.40;;;;;;;;;;5072655;28;20059;-72
2022/07/26 10:36:58;;;;;;;5.68;1.10;;;;;;;;;;5072534;28;20044;-73
2022/07/26 10:39:25;;;;;;;8.35;1.55;;;;;;;;;;5072583;28;20097;-73
2022/07/26 10:42:10;;;;;;;6.82;1.30;;;;;;;;;;5071787;28;20048;-72
2022/07/26 10:44:38;;;;;;;7.45;1.45;;;;;;;;;;5072042;28;20051;-73
2022/07/26 10:47:04;;;;;;;9.40;1.50;;;;;;;;;;5072812;28;20056;-72
2022/07/26 10:49:30;;;;;;;6.70;1.45;;;;;;;;;;5071838;28;20056;-73
2022/07/26 10:52:10;;;;;;;8.85;1.90;;;;;;;;;;5071769;28;20154;-73
2022/07/26 10:54:56;;;;;;;10.98;2.08;;;;;;;;;;5060908;28;20041;-72
2022/07/26 10:57:32;;;;;;;7.72;1.50;;;;;;;;;;5071774;28;20116;-73
2022/07/26 10:59:59;;;;;;;9.50;1.95;;;;;;;;;;5070030;28;20067;-73
2022/07/26 11:02:31;;;;;;;9.30;1.95;;;;;;;;;;5068132;28;20542;-73
2022/07/26 11:05:03;;;;;;;10.90;2.47;;;;;;;;;;5070263;28;20078;-73
2022/07/26 11:07:29;;;;;;;18.13;2.78;;;;;;;;;;5071080;28;20048;-72
2022/07/26 11:09:59;;;;;;;13.90;2.53;;;;;;;;;;5073238;28;20071;-72
2022/07/26 11:12:25;;;;;;;10.73;1.95;;;;;;;;;;5075122;28;20040;-73
2022/07/26 11:14:53;;;;;;;10.07;1.90;;;;;;;;;;5075102;28;20049;-73
2022/07/26 11:17:29;;;;;;;11.70;2.15;;;;;;;;;;5074857;28;20047;-73
2022/07/26 11:19:55;;;;;;;13.57;2.17;;;;;;;;;;5073504;28;20051;-73
2022/07/26 11:22:22;;;;;;;16.80;2.50;;;;;;;;;;5073905;28;20048;-73
2022/07/26 11:24:48;;;;;;;13.98;2.40;;;;;;;;;;5074133;28;20048;-72
2022/07/26 11:27:14;;;;;;;10.88;2.55;;;;;;;;;;5068670;28;20029;-72
2022/07/26 11:29:40;;;;;;;12.27;2.30;;;;;;;;;;5076273;28;20052;-73
2022/07/26 11:32:07;;;;;;;13.00;2.40;;;;;;;;;;5075226;28;20052;-73
2022/07/26 11:34:33;;;;;;;11.45;2.05;;;;;;;;;;5072326;28;20075;-73
2022/07/26 11:37:01;;;;;;;13.75;2.45;;;;;;;;;;5075847;28;20056;-73
2022/07/26 11:39:29;;;;;;;12.95;2.03;;;;;;;;;;5075353;28;20391;-73
2022/07/26 11:41:59;;;;;;;15.48;2.42;;;;;;;;;;5075798;28;20044;-73
2022/07/26 11:44:26;;;;;;;12.70;1.90;;;;;;;;;;5075870;28;20101;-73
2022/07/26 11:46:52;;;;;;;12.15;2.38;;;;;;;;;;5074891;28;20512;-73
2022/07/26 11:49:19;;;;;;;11.48;2.67;;;;;;;;;;5074368;28;20060;-72
2022/07/26 11:51:56;;;;;;;11.48;2.00;;;;;;;;;;5063567;28;20055;-74
2022/07/26 11:54:23;;;;;;;10.77;2.03;;;;;;;;;;5072828;28;20461;-73
2022/07/26 11:56:55;;;;;;;10.00;2.05;;;;;;;;;;5072431;28;20032;-72
2022/07/26 11:59:23;;;;;;;10.00;1.60;;;;;;;;;;5075594;28;20051;-72
2022/07/26 12:01:49;;;;;;;10.75;2.20;;;;;;;;;;5075305;28;20043;-72
2022/07/26 12:04:22;;;;;;;9.23;1.90;;;;;;;;;;5075380;28;20052;-73
2022/07/26 12:06:48;;;;;;;9.52;1.70;;;;;;;;;;5073691;28;20090;-72
2022/07/26 12:09:31;;;;;;;8.27;1.50;;;;;;;;;;5074343;28;20040;-73
2022/07/26 12:11:57;;;;;;;7.57;1.27;;;;;;;;;;5074509;28;20067;-72
2022/07/26 12:14:25;;;;;;;9.70;1.60;;;;;;;;;;5073083;28;20060;-74
2022/07/26 12:16:51;;;;;;;9.98;1.50;;;;;;;;;;5071003;28;20048;-74
2022/07/26 12:19:17;;;;;;;6.50;1.35;;;;;;;;;;5071786;28;20051;-73
2022/07/26 12:22:06;;;;;;;12.27;1.63;;;;;;;;;;5070650;28;20037;-71
2022/07/26 12:24:37;;;;;;;9.98;1.55;;;;;;;;;;5058768;28;20072;-73
2022/07/26 12:27:18;;;;;;;8.95;1.75;;;;;;;;;;5070183;28;20045;-73
2022/07/26 12:29:45;;;;;;;12.88;1.83;;;;;;;;;;5067834;28;20060;-72
2022/07/26 12:32:13;;;;;;;8.05;1.70;;;;;;;;;;5072780;28;20049;-73
2022/07/26 12:34:40;;;;;;;8.27;1.42;;;;;;;;;;5068738;28;20552;-73
2022/07/26 12:37:06;;;;;;;9.25;1.27;;;;;;;;;;5073836;28;20051;-73
2022/07/26 12:39:32;;;;;;;10.27;2.00;;;;;;;;;;5074245;28;20410;-74
2022/07/26 12:41:58;;;;;;;8.65;1.40;;;;;;;;;;5073390;28;20505;-73
2022/07/26 12:44:24;;;;;;;6.35;1.40;;;;;;;;;;5066385;28;20452;-73
2022/07/26 12:46:50;;;;;;;9.27;1.30;;;;;;;;;;5070863;28;20505;-73
2022/07/26 12:49:16;;;;;;;10.40;1.60;;;;;;;;;;5071066;28;20045;-73
2022/07/26 12:51:43;;;;;;;6.88;1.40;;;;;;;;;;5067724;28;20048;-73
2022/07/26 12:54:09;;;;;;;7.28;1.35;;;;;;;;;;5065287;28;20033;-74
2022/07/26 12:56:35;;;;;;;9.65;1.25;;;;;;;;;;5066624;28;20036;-72
2022/07/26 12:59:01;;;;;;;8.38;1.35;;;;;;;;;;5061717;28;20182;-72
2022/07/26 13:01:28;;;;;;;6.32;1.23;;;;;;;;;;5072133;28;20060;-72
2022/07/26 13:03:54;;;;;;;7.32;1.27;;;;;;;;;;5069941;28;20048;-73
2022/07/26 13:06:21;;;;;;;6.40;1.23;;;;;;;;;;5067790;28;20098;-73
2022/07/26 13:08:47;;;;;;;7.07;1.00;;;;;;;;;;5069284;28;20041;-73
2022/07/26 13:11:13;;;;;;;5.20;1.02;;;;;;;;;;5071841;28;20044;-74
2022/07/26 13:13:39;;;;;;;5.82;1.10;;;;;;;;;;5069989;28;20045;-73
2022/07/26 13:16:05;;;;;;;4.57;1.00;;;;;;;;;;5071315;28;20421;-73
2022/07/26 13:18:31;;;;;;;7.78;1.38;;;;;;;;;;5065942;28;20064;-73
2022/07/26 13:20:58;;;;;;;8.65;1.13;;;;;;;;;;5071123;28;20043;-73
2022/07/26 13:23:24;;;;;;;7.18;1.13;;;;;;;;;;5071857;28;20044;-74
2022/07/26 13:25:50;;;;;;;5.65;1.33;;;;;;;;;;5071570;28;20174;-72
2022/07/26 13:28:16;;;;;;;12.63;1.70;;;;;;;;;;5071232;28;20082;-73
2022/07/26 13:30:42;;;;;;;6.38;1.13;;;;;;;;;;5073638;28;20053;-73
2022/07/26 13:33:08;;;;;;;5.90;0.90;;;;;;;;;;5073179;28;20048;-73
2022/07/26 13:35:37;;;;;;;7.32;1.05;;;;;;;;;;5067564;28;20051;-73
2022/07/26 13:38:03;;;;;;;9.73;1.35;;;;;;;;;;5053504;28;20175;-73
2022/07/26 13:40:29;;;;;;;7.22;1.33;;;;;;;;;;5067558;28;20044;-73
2022/07/26 13:42:55;;;;;;;5.22;1.10;;;;;;;;;;5070498;28;20410;-72
2022/07/26 13:45:21;;;;;;;7.07;1.13;;;;;;;;;;5070424;28;20055;-74
2022/07/26 13:47:47;;;;;;;7.20;0.98;;;;;;;;;;5071823;28;20135;-73
2022/07/26 13:50:13;;;;;;;3.55;0.85;;;;;;;;;;5069809;28;20482;-72
2022/07/26 13:52:40;;;;;;;5.68;1.02;;;;;;;;;;5070947;28;20414;-72
2022/07/26 13:55:06;;;;;;;6.60;1.20;;;;;;;;;;5072401;28;20063;-73
2022/07/26 13:57:32;;;;;;;7.90;1.30;;;;;;;;;;5071947;28;20183;-72
2022/07/26 13:59:58;;;;;;;6.47;1.13;;;;;;;;;;5073223;28;20082;-73
2022/07/26 14:02:24;;;;;;;9.25;1.30;;;;;;;;;;5071230;28;20127;-75
2022/07/26 14:04:50;;;;;;;6.55;1.23;;;;;;;;;;5069177;28;20053;-72
2022/07/26 14:07:16;;;;;;;8.73;1.52;;;;;;;;;;5068291;28;20044;-79
2022/07/26 14:09:42;;;;;;;10.35;1.50;;;;;;;;;;5078252;28;20414;-78
2022/07/26 14:12:11;;;;;;;7.22;1.17;;;;;;;;;;5073397;28;20040;-77
2022/07/26 14:14:38;;;;;;;10.85;1.63;;;;;;;;;;5072355;28;20040;-74
2022/07/26 14:17:04;;;;;;;7.03;1.20;;;;;;;;;;5074628;28;20406;-76
2022/07/26 14:19:30;;;;;;;7.15;1.30;;;;;;;;;;5072843;28;20452;-74
2022/07/26 14:21:56;;;;;;;6.53;1.38;;;;;;;;;;5071612;28;20053;-73
2022/07/26 14:24:22;;;;;;;7.32;1.20;;;;;;;;;;5071724;28;20044;-74
2022/07/26 14:26:48;;;;;;;6.65;1.08;;;;;;;;;;5055259;28;20057;-73
2022/07/26 14:29:14;;;;;;;10.10;1.42;;;;;;;;;;5071440;28;20067;-73
2022/07/26 14:31:40;;;;;;;8.13;1.40;;;;;;;;;;5069969;28;20482;-74
2022/07/26 14:34:06;;;;;;;7.93;1.58;;;;;;;;;;5072342;28;20098;-75
2022/07/26 14:36:32;;;;;;;8.05;1.58;;;;;;;;;;5071927;28;20045;-73
2022/07/26 14:38:58;;;;;;;8.75;1.45;;;;;;;;;;5072252;28;20045;-74
2022/07/26 14:41:24;;;;;;;7.53;1.52;;;;;;;;;;5071825;28;20479;-73